<?xml version="1.0" encoding="utf-8"?>
<gpx xmlns:xsi="http://www.w3.org/2001/XMLSchema-instance" xmlns:xsd="http://www.w3.org/2001/XMLSchema" version="1.1" creator="Shapelink.com" xmlns="http://www.topografix.com/GPX/1/1" xmlns:gpxtpx="http://www.garmin.com/xmlschemas/TrackPointExtension/v1">
  <metadata>
    <name>Gåing 1.60 km, 2012-05-02</name>
    <desc></desc>
    <author><name>Mikael Blom</name></author> 
    <time>2012-05-02T18:11:10Z</time>
  </metadata>
  <trk>
    <name>Gåing 1.60 km, 2012-05-02</name>
    <trkseg>
      <trkpt lat="59.9790029" lon="17.7395796">
        <ele>32.3416</ele>
        <time>2012-05-02T18:11:10Z</time>
      </trkpt>
      <trkpt lat="59.9789987" lon="17.7395371">
        <ele>31.8607</ele>
        <time>2012-05-02T18:11:12Z</time>
      </trkpt>
      <trkpt lat="59.9789313" lon="17.7394">
        <ele>34.2642</ele>
        <time>2012-05-02T18:11:18Z</time>
      </trkpt>
      <trkpt lat="59.9789179" lon="17.7392384">
        <ele>36.6675</ele>
        <time>2012-05-02T18:11:23Z</time>
      </trkpt>
      <trkpt lat="59.978964" lon="17.7391771">
        <ele>37.6287</ele>
        <time>2012-05-02T18:11:27Z</time>
      </trkpt>
      <trkpt lat="59.9790579" lon="17.7391265">
        <ele>36.6675</ele>
        <time>2012-05-02T18:11:34Z</time>
      </trkpt>
      <trkpt lat="59.9790788" lon="17.7391134">
        <ele>36.6675</ele>
        <time>2012-05-02T18:11:36Z</time>
      </trkpt>
      <trkpt lat="59.9791462" lon="17.7390847">
        <ele>37.1481</ele>
        <time>2012-05-02T18:11:41Z</time>
      </trkpt>
      <trkpt lat="59.9792428" lon="17.7390274">
        <ele>38.5901</ele>
        <time>2012-05-02T18:11:48Z</time>
      </trkpt>
      <trkpt lat="59.9793176" lon="17.7389754">
        <ele>39.0707</ele>
        <time>2012-05-02T18:11:54Z</time>
      </trkpt>
      <trkpt lat="59.9794449" lon="17.7389036">
        <ele>39.0707</ele>
        <time>2012-05-02T18:12:04Z</time>
      </trkpt>
      <trkpt lat="59.9795106" lon="17.7388767">
        <ele>39.0707</ele>
        <time>2012-05-02T18:12:09Z</time>
      </trkpt>
      <trkpt lat="59.9795757" lon="17.7388327">
        <ele>39.0707</ele>
        <time>2012-05-02T18:12:14Z</time>
      </trkpt>
      <trkpt lat="59.9796529" lon="17.7388077">
        <ele>39.0707</ele>
        <time>2012-05-02T18:12:19Z</time>
      </trkpt>
      <trkpt lat="59.9797372" lon="17.7387444">
        <ele>38.1094</ele>
        <time>2012-05-02T18:12:25Z</time>
      </trkpt>
      <trkpt lat="59.9798405" lon="17.7386763">
        <ele>38.5901</ele>
        <time>2012-05-02T18:12:32Z</time>
      </trkpt>
      <trkpt lat="59.9799358" lon="17.7386463">
        <ele>41.474</ele>
        <time>2012-05-02T18:12:38Z</time>
      </trkpt>
      <trkpt lat="59.9800799" lon="17.738655">
        <ele>43.3966</ele>
        <time>2012-05-02T18:12:47Z</time>
      </trkpt>
      <trkpt lat="59.980128" lon="17.7386638">
        <ele>41.9547</ele>
        <time>2012-05-02T18:12:51Z</time>
      </trkpt>
      <trkpt lat="59.9801977" lon="17.7386768">
        <ele>43.8773</ele>
        <time>2012-05-02T18:12:55Z</time>
      </trkpt>
      <trkpt lat="59.9802201" lon="17.7386834">
        <ele>45.3192</ele>
        <time>2012-05-02T18:12:57Z</time>
      </trkpt>
      <trkpt lat="59.9802902" lon="17.7386856">
        <ele>48.2034</ele>
        <time>2012-05-02T18:13:01Z</time>
      </trkpt>
      <trkpt lat="59.9804036" lon="17.7386616">
        <ele>52.0486</ele>
        <time>2012-05-02T18:13:08Z</time>
      </trkpt>
      <trkpt lat="59.9804481" lon="17.7386408">
        <ele>53.0098</ele>
        <time>2012-05-02T18:13:10Z</time>
      </trkpt>
      <trkpt lat="59.9805067" lon="17.7386399">
        <ele>53.4905</ele>
        <time>2012-05-02T18:13:14Z</time>
      </trkpt>
      <trkpt lat="59.9805808" lon="17.7386359">
        <ele>53.4905</ele>
        <time>2012-05-02T18:13:20Z</time>
      </trkpt>
      <trkpt lat="59.9805954" lon="17.7386177">
        <ele>53.0098</ele>
        <time>2012-05-02T18:13:21Z</time>
      </trkpt>
      <trkpt lat="59.9806874" lon="17.7385896">
        <ele>54.4518</ele>
        <time>2012-05-02T18:13:26Z</time>
      </trkpt>
      <trkpt lat="59.9807626" lon="17.7385887">
        <ele>56.8551</ele>
        <time>2012-05-02T18:13:31Z</time>
      </trkpt>
      <trkpt lat="59.9808982" lon="17.7385417">
        <ele>60.2197</ele>
        <time>2012-05-02T18:13:39Z</time>
      </trkpt>
      <trkpt lat="59.9809242" lon="17.7385425">
        <ele>60.2197</ele>
        <time>2012-05-02T18:13:41Z</time>
      </trkpt>
      <trkpt lat="59.9809863" lon="17.7385374">
        <ele>59.2584</ele>
        <time>2012-05-02T18:13:46Z</time>
      </trkpt>
      <trkpt lat="59.9810262" lon="17.7385555">
        <ele>57.3358</ele>
        <time>2012-05-02T18:13:49Z</time>
      </trkpt>
      <trkpt lat="59.981095" lon="17.7385022">
        <ele>55.4131</ele>
        <time>2012-05-02T18:13:55Z</time>
      </trkpt>
      <trkpt lat="59.9812187" lon="17.7384457">
        <ele>56.8551</ele>
        <time>2012-05-02T18:14:02Z</time>
      </trkpt>
      <trkpt lat="59.9812599" lon="17.738424">
        <ele>55.8938</ele>
        <time>2012-05-02T18:14:05Z</time>
      </trkpt>
      <trkpt lat="59.9813043" lon="17.7383935">
        <ele>58.7777</ele>
        <time>2012-05-02T18:14:07Z</time>
      </trkpt>
      <trkpt lat="59.981443" lon="17.7383909">
        <ele>63.1036</ele>
        <time>2012-05-02T18:14:14Z</time>
      </trkpt>
      <trkpt lat="59.9814663" lon="17.7383799">
        <ele>62.1423</ele>
        <time>2012-05-02T18:14:16Z</time>
      </trkpt>
      <trkpt lat="59.9815293" lon="17.7383473">
        <ele>60.2197</ele>
        <time>2012-05-02T18:14:22Z</time>
      </trkpt>
      <trkpt lat="59.981644" lon="17.7383215">
        <ele>60.2197</ele>
        <time>2012-05-02T18:14:29Z</time>
      </trkpt>
      <trkpt lat="59.9817131" lon="17.7382872">
        <ele>58.2971</ele>
        <time>2012-05-02T18:14:35Z</time>
      </trkpt>
      <trkpt lat="59.9817609" lon="17.7382608">
        <ele>58.2971</ele>
        <time>2012-05-02T18:14:38Z</time>
      </trkpt>
      <trkpt lat="59.9818507" lon="17.7382209">
        <ele>62.1423</ele>
        <time>2012-05-02T18:14:43Z</time>
      </trkpt>
      <trkpt lat="59.9819156" lon="17.738208">
        <ele>64.5457</ele>
        <time>2012-05-02T18:14:47Z</time>
      </trkpt>
      <trkpt lat="59.9819907" lon="17.7381954">
        <ele>60.2197</ele>
        <time>2012-05-02T18:14:54Z</time>
      </trkpt>
      <trkpt lat="59.982075" lon="17.7381568">
        <ele>58.7777</ele>
        <time>2012-05-02T18:14:59Z</time>
      </trkpt>
      <trkpt lat="59.9822112" lon="17.7380861">
        <ele>59.2584</ele>
        <time>2012-05-02T18:15:07Z</time>
      </trkpt>
      <trkpt lat="59.9823113" lon="17.7380338">
        <ele>57.8165</ele>
        <time>2012-05-02T18:15:14Z</time>
      </trkpt>
      <trkpt lat="59.9823247" lon="17.7380256">
        <ele>57.3358</ele>
        <time>2012-05-02T18:15:15Z</time>
      </trkpt>
      <trkpt lat="59.9824037" lon="17.7380018">
        <ele>61.181</ele>
        <time>2012-05-02T18:15:19Z</time>
      </trkpt>
      <trkpt lat="59.9824873" lon="17.7379845">
        <ele>57.3358</ele>
        <time>2012-05-02T18:15:26Z</time>
      </trkpt>
      <trkpt lat="59.9825777" lon="17.7379762">
        <ele>54.4518</ele>
        <time>2012-05-02T18:15:31Z</time>
      </trkpt>
      <trkpt lat="59.9826585" lon="17.7379821">
        <ele>55.4131</ele>
        <time>2012-05-02T18:15:35Z</time>
      </trkpt>
      <trkpt lat="59.9827687" lon="17.7380018">
        <ele>53.0098</ele>
        <time>2012-05-02T18:15:42Z</time>
      </trkpt>
      <trkpt lat="59.9828406" lon="17.7379866">
        <ele>57.3358</ele>
        <time>2012-05-02T18:15:45Z</time>
      </trkpt>
      <trkpt lat="59.9829336" lon="17.7379821">
        <ele>57.3358</ele>
        <time>2012-05-02T18:15:51Z</time>
      </trkpt>
      <trkpt lat="59.9829864" lon="17.7379805">
        <ele>54.9324</ele>
        <time>2012-05-02T18:15:55Z</time>
      </trkpt>
      <trkpt lat="59.9830095" lon="17.7380116">
        <ele>53.4905</ele>
        <time>2012-05-02T18:15:57Z</time>
      </trkpt>
      <trkpt lat="59.9830677" lon="17.738022">
        <ele>51.5679</ele>
        <time>2012-05-02T18:16:02Z</time>
      </trkpt>
      <trkpt lat="59.9830901" lon="17.7380225">
        <ele>53.4905</ele>
        <time>2012-05-02T18:16:03Z</time>
      </trkpt>
      <trkpt lat="59.9831657" lon="17.7380226">
        <ele>56.3745</ele>
        <time>2012-05-02T18:16:08Z</time>
      </trkpt>
      <trkpt lat="59.9832598" lon="17.7380272">
        <ele>59.7391</ele>
        <time>2012-05-02T18:16:15Z</time>
      </trkpt>
      <trkpt lat="59.9833139" lon="17.738007">
        <ele>61.6617</ele>
        <time>2012-05-02T18:16:19Z</time>
      </trkpt>
      <trkpt lat="59.9834262" lon="17.738011">
        <ele>63.1036</ele>
        <time>2012-05-02T18:16:25Z</time>
      </trkpt>
      <trkpt lat="59.9835425" lon="17.737999">
        <ele>67.9103</ele>
        <time>2012-05-02T18:16:30Z</time>
      </trkpt>
      <trkpt lat="59.9836457" lon="17.7379542">
        <ele>70.7942</ele>
        <time>2012-05-02T18:16:35Z</time>
      </trkpt>
      <trkpt lat="59.9837347" lon="17.7379339">
        <ele>74.1588</ele>
        <time>2012-05-02T18:16:40Z</time>
      </trkpt>
      <trkpt lat="59.9838255" lon="17.7379356">
        <ele>74.1588</ele>
        <time>2012-05-02T18:16:46Z</time>
      </trkpt>
      <trkpt lat="59.983893" lon="17.7379096">
        <ele>69.3523</ele>
        <time>2012-05-02T18:16:52Z</time>
      </trkpt>
      <trkpt lat="59.9839219" lon="17.7378996">
        <ele>66.949</ele>
        <time>2012-05-02T18:16:55Z</time>
      </trkpt>
      <trkpt lat="59.9839429" lon="17.7378899">
        <ele>65.9877</ele>
        <time>2012-05-02T18:16:57Z</time>
      </trkpt>
      <trkpt lat="59.9840282" lon="17.7378884">
        <ele>60.7003</ele>
        <time>2012-05-02T18:17:04Z</time>
      </trkpt>
      <trkpt lat="59.984071" lon="17.737899">
        <ele>57.3358</ele>
        <time>2012-05-02T18:17:08Z</time>
      </trkpt>
      <trkpt lat="59.9841439" lon="17.737878">
        <ele>53.9712</ele>
        <time>2012-05-02T18:17:14Z</time>
      </trkpt>
      <trkpt lat="59.9841773" lon="17.7378568">
        <ele>53.0098</ele>
        <time>2012-05-02T18:17:16Z</time>
      </trkpt>
      <trkpt lat="59.9842139" lon="17.7378602">
        <ele>51.5679</ele>
        <time>2012-05-02T18:17:18Z</time>
      </trkpt>
      <trkpt lat="59.9842903" lon="17.7378686">
        <ele>48.2034</ele>
        <time>2012-05-02T18:17:23Z</time>
      </trkpt>
      <trkpt lat="59.9843332" lon="17.737899">
        <ele>47.7225</ele>
        <time>2012-05-02T18:17:26Z</time>
      </trkpt>
      <trkpt lat="59.9844414" lon="17.7379047">
        <ele>44.8386</ele>
        <time>2012-05-02T18:17:33Z</time>
      </trkpt>
      <trkpt lat="59.9845575" lon="17.7379131">
        <ele>47.2418</ele>
        <time>2012-05-02T18:17:39Z</time>
      </trkpt>
      <trkpt lat="59.984585" lon="17.7379366">
        <ele>46.7612</ele>
        <time>2012-05-02T18:17:41Z</time>
      </trkpt>
      <trkpt lat="59.9847057" lon="17.7379869">
        <ele>43.3966</ele>
        <time>2012-05-02T18:17:50Z</time>
      </trkpt>
      <trkpt lat="59.9847342" lon="17.7379996">
        <ele>43.3966</ele>
        <time>2012-05-02T18:17:52Z</time>
      </trkpt>
      <trkpt lat="59.9847826" lon="17.7380116">
        <ele>43.8773</ele>
        <time>2012-05-02T18:17:56Z</time>
      </trkpt>
      <trkpt lat="59.9848282" lon="17.7380167">
        <ele>44.358</ele>
        <time>2012-05-02T18:17:59Z</time>
      </trkpt>
      <trkpt lat="59.9848793" lon="17.7380172">
        <ele>43.3966</ele>
        <time>2012-05-02T18:18:03Z</time>
      </trkpt>
      <trkpt lat="59.9849585" lon="17.7380439">
        <ele>41.474</ele>
        <time>2012-05-02T18:18:09Z</time>
      </trkpt>
      <trkpt lat="59.9850666" lon="17.7381181">
        <ele>40.9934</ele>
        <time>2012-05-02T18:18:17Z</time>
      </trkpt>
      <trkpt lat="59.9851872" lon="17.7381282">
        <ele>43.3966</ele>
        <time>2012-05-02T18:18:24Z</time>
      </trkpt>
      <trkpt lat="59.9853293" lon="17.7381591">
        <ele>46.2806</ele>
        <time>2012-05-02T18:18:32Z</time>
      </trkpt>
      <trkpt lat="59.9853983" lon="17.7381685">
        <ele>47.7225</ele>
        <time>2012-05-02T18:18:37Z</time>
      </trkpt>
      <trkpt lat="59.9854879" lon="17.7382019">
        <ele>46.7612</ele>
        <time>2012-05-02T18:18:43Z</time>
      </trkpt>
      <trkpt lat="59.9855821" lon="17.7382245">
        <ele>48.684</ele>
        <time>2012-05-02T18:18:48Z</time>
      </trkpt>
      <trkpt lat="59.985634" lon="17.7382647">
        <ele>48.2034</ele>
        <time>2012-05-02T18:18:51Z</time>
      </trkpt>
      <trkpt lat="59.9857302" lon="17.7382851">
        <ele>50.126</ele>
        <time>2012-05-02T18:18:57Z</time>
      </trkpt>
      <trkpt lat="59.9858394" lon="17.7383172">
        <ele>53.0098</ele>
        <time>2012-05-02T18:19:04Z</time>
      </trkpt>
      <trkpt lat="59.9858729" lon="17.7383235">
        <ele>52.5292</ele>
        <time>2012-05-02T18:19:06Z</time>
      </trkpt>
      <trkpt lat="59.9859893" lon="17.7383897">
        <ele>51.5679</ele>
        <time>2012-05-02T18:19:14Z</time>
      </trkpt>
      <trkpt lat="59.9860513" lon="17.7384162">
        <ele>50.126</ele>
        <time>2012-05-02T18:19:18Z</time>
      </trkpt>
      <trkpt lat="59.9861489" lon="17.738512">
        <ele>46.7612</ele>
        <time>2012-05-02T18:19:25Z</time>
      </trkpt>
      <trkpt lat="59.9861623" lon="17.738525">
        <ele>45.7999</ele>
        <time>2012-05-02T18:19:26Z</time>
      </trkpt>
      <trkpt lat="59.9862865" lon="17.7386011">
        <ele>44.358</ele>
        <time>2012-05-02T18:19:34Z</time>
      </trkpt>
      <trkpt lat="59.9863747" lon="17.7386593">
        <ele>43.8773</ele>
        <time>2012-05-02T18:19:39Z</time>
      </trkpt>
      <trkpt lat="59.9864644" lon="17.7387912">
        <ele>43.3966</ele>
        <time>2012-05-02T18:19:46Z</time>
      </trkpt>
      <trkpt lat="59.9865263" lon="17.7388333">
        <ele>45.7999</ele>
        <time>2012-05-02T18:19:50Z</time>
      </trkpt>
      <trkpt lat="59.9865695" lon="17.7388565">
        <ele>46.2806</ele>
        <time>2012-05-02T18:19:53Z</time>
      </trkpt>
      <trkpt lat="59.9866323" lon="17.7389155">
        <ele>47.2418</ele>
        <time>2012-05-02T18:19:58Z</time>
      </trkpt>
      <trkpt lat="59.9866882" lon="17.7389654">
        <ele>47.7225</ele>
        <time>2012-05-02T18:20:02Z</time>
      </trkpt>
      <trkpt lat="59.9868008" lon="17.7390964">
        <ele>48.2034</ele>
        <time>2012-05-02T18:20:11Z</time>
      </trkpt>
      <trkpt lat="59.9869036" lon="17.7391584">
        <ele>51.5679</ele>
        <time>2012-05-02T18:20:17Z</time>
      </trkpt>
      <trkpt lat="59.9870122" lon="17.739232">
        <ele>53.4905</ele>
        <time>2012-05-02T18:20:23Z</time>
      </trkpt>
      <trkpt lat="59.9870761" lon="17.7392714">
        <ele>54.9324</ele>
        <time>2012-05-02T18:20:27Z</time>
      </trkpt>
      <trkpt lat="59.9871237" lon="17.7392962">
        <ele>53.9712</ele>
        <time>2012-05-02T18:20:31Z</time>
      </trkpt>
      <trkpt lat="59.9871984" lon="17.7392917">
        <ele>53.4905</ele>
        <time>2012-05-02T18:20:36Z</time>
      </trkpt>
      <trkpt lat="59.9872284" lon="17.7392936">
        <ele>53.4905</ele>
        <time>2012-05-02T18:20:38Z</time>
      </trkpt>
      <trkpt lat="59.9872517" lon="17.7392869">
        <ele>53.0098</ele>
        <time>2012-05-02T18:20:40Z</time>
      </trkpt>
      <trkpt lat="59.9873214" lon="17.7392739">
        <ele>53.0098</ele>
        <time>2012-05-02T18:20:45Z</time>
      </trkpt>
      <trkpt lat="59.9874463" lon="17.7392534">
        <ele>56.3745</ele>
        <time>2012-05-02T18:20:52Z</time>
      </trkpt>
      <trkpt lat="59.9875822" lon="17.7392291">
        <ele>65.5071</ele>
        <time>2012-05-02T18:20:58Z</time>
      </trkpt>
      <trkpt lat="59.9876748" lon="17.7392419">
        <ele>67.4297</ele>
        <time>2012-05-02T18:21:03Z</time>
      </trkpt>
      <trkpt lat="59.9876827" lon="17.7392479">
        <ele>66.949</ele>
        <time>2012-05-02T18:21:04Z</time>
      </trkpt>
      <trkpt lat="59.9877688" lon="17.7392443">
        <ele>65.5071</ele>
        <time>2012-05-02T18:21:10Z</time>
      </trkpt>
      <trkpt lat="59.9878174" lon="17.7392383">
        <ele>65.5071</ele>
        <time>2012-05-02T18:21:13Z</time>
      </trkpt>
      <trkpt lat="59.9879366" lon="17.7392642">
        <ele>65.9877</ele>
        <time>2012-05-02T18:21:22Z</time>
      </trkpt>
      <trkpt lat="59.987984" lon="17.7392538">
        <ele>65.5071</ele>
        <time>2012-05-02T18:21:25Z</time>
      </trkpt>
      <trkpt lat="59.988025" lon="17.7392407">
        <ele>64.5457</ele>
        <time>2012-05-02T18:21:28Z</time>
      </trkpt>
      <trkpt lat="59.9880509" lon="17.7392455">
        <ele>62.1423</ele>
        <time>2012-05-02T18:21:31Z</time>
      </trkpt>
      <trkpt lat="59.9881333" lon="17.7391948">
        <ele>58.7777</ele>
        <time>2012-05-02T18:21:37Z</time>
      </trkpt>
      <trkpt lat="59.9882193" lon="17.7391632">
        <ele>57.3358</ele>
        <time>2012-05-02T18:21:43Z</time>
      </trkpt>
      <trkpt lat="59.9882603" lon="17.7391346">
        <ele>56.3745</ele>
        <time>2012-05-02T18:21:46Z</time>
      </trkpt>
      <trkpt lat="59.988379" lon="17.7390935">
        <ele>58.2971</ele>
        <time>2012-05-02T18:21:54Z</time>
      </trkpt>
      <trkpt lat="59.988498" lon="17.7390298">
        <ele>61.181</ele>
        <time>2012-05-02T18:22:00Z</time>
      </trkpt>
      <trkpt lat="59.9885332" lon="17.7390096">
        <ele>60.7003</ele>
        <time>2012-05-02T18:22:03Z</time>
      </trkpt>
      <trkpt lat="59.988617" lon="17.7389725">
        <ele>62.6229</ele>
        <time>2012-05-02T18:22:08Z</time>
      </trkpt>
      <trkpt lat="59.9886409" lon="17.738944">
        <ele>62.1423</ele>
        <time>2012-05-02T18:22:10Z</time>
      </trkpt>
      <trkpt lat="59.9887573" lon="17.7388998">
        <ele>64.0651</ele>
        <time>2012-05-02T18:22:17Z</time>
      </trkpt>
      <trkpt lat="59.9887656" lon="17.738889">
        <ele>64.0651</ele>
        <time>2012-05-02T18:22:18Z</time>
      </trkpt>
      <trkpt lat="59.9888706" lon="17.7388265">
        <ele>66.4683</ele>
        <time>2012-05-02T18:22:25Z</time>
      </trkpt>
      <trkpt lat="59.9889565" lon="17.7387699">
        <ele>66.4683</ele>
        <time>2012-05-02T18:22:30Z</time>
      </trkpt>
      <trkpt lat="59.9889716" lon="17.7387586">
        <ele>66.4683</ele>
        <time>2012-05-02T18:22:31Z</time>
      </trkpt>
      <trkpt lat="59.9889891" lon="17.7387466">
        <ele>65.5071</ele>
        <time>2012-05-02T18:22:33Z</time>
      </trkpt>
      <trkpt lat="59.9890544" lon="17.7386857">
        <ele>64.5457</ele>
        <time>2012-05-02T18:22:37Z</time>
      </trkpt>
      <trkpt lat="59.9890823" lon="17.738656">
        <ele>64.0651</ele>
        <time>2012-05-02T18:22:39Z</time>
      </trkpt>
      <trkpt lat="59.9891248" lon="17.7386333">
        <ele>62.6229</ele>
        <time>2012-05-02T18:22:42Z</time>
      </trkpt>
      <trkpt lat="59.9891766" lon="17.7385954">
        <ele>62.1423</ele>
        <time>2012-05-02T18:22:46Z</time>
      </trkpt>
      <trkpt lat="59.989232" lon="17.7385559">
        <ele>60.7003</ele>
        <time>2012-05-02T18:22:50Z</time>
      </trkpt>
      <trkpt lat="59.9893266" lon="17.738526">
        <ele>59.7391</ele>
        <time>2012-05-02T18:22:56Z</time>
      </trkpt>
      <trkpt lat="59.9894082" lon="17.7385013">
        <ele>60.2197</ele>
        <time>2012-05-02T18:23:01Z</time>
      </trkpt>
      <trkpt lat="59.9895055" lon="17.7384411">
        <ele>59.2584</ele>
        <time>2012-05-02T18:23:08Z</time>
      </trkpt>
      <trkpt lat="59.9895739" lon="17.7384049">
        <ele>59.7391</ele>
        <time>2012-05-02T18:23:13Z</time>
      </trkpt>
      <trkpt lat="59.9896743" lon="17.7383695">
        <ele>62.6229</ele>
        <time>2012-05-02T18:23:19Z</time>
      </trkpt>
      <trkpt lat="59.9897416" lon="17.7383416">
        <ele>63.5844</ele>
        <time>2012-05-02T18:23:24Z</time>
      </trkpt>
      <trkpt lat="59.9898588" lon="17.73827">
        <ele>65.5071</ele>
        <time>2012-05-02T18:23:31Z</time>
      </trkpt>
      <trkpt lat="59.9899582" lon="17.7382302">
        <ele>65.5071</ele>
        <time>2012-05-02T18:23:37Z</time>
      </trkpt>
      <trkpt lat="59.990097" lon="17.7381599">
        <ele>64.5457</ele>
        <time>2012-05-02T18:23:46Z</time>
      </trkpt>
      <trkpt lat="59.9901143" lon="17.7381545">
        <ele>65.0264</ele>
        <time>2012-05-02T18:23:47Z</time>
      </trkpt>
      <trkpt lat="59.9902431" lon="17.7381234">
        <ele>66.4683</ele>
        <time>2012-05-02T18:23:54Z</time>
      </trkpt>
      <trkpt lat="59.9903447" lon="17.7380941">
        <ele>68.3909</ele>
        <time>2012-05-02T18:24:00Z</time>
      </trkpt>
      <trkpt lat="59.9904311" lon="17.7380619">
        <ele>66.4683</ele>
        <time>2012-05-02T18:24:06Z</time>
      </trkpt>
      <trkpt lat="59.990526" lon="17.7380223">
        <ele>66.4683</ele>
        <time>2012-05-02T18:24:12Z</time>
      </trkpt>
      <trkpt lat="59.9906054" lon="17.7379705">
        <ele>67.9103</ele>
        <time>2012-05-02T18:24:17Z</time>
      </trkpt>
      <trkpt lat="59.9906869" lon="17.737961">
        <ele>67.9103</ele>
        <time>2012-05-02T18:24:24Z</time>
      </trkpt>
      <trkpt lat="59.99073" lon="17.7379433">
        <ele>68.8716</ele>
        <time>2012-05-02T18:24:26Z</time>
      </trkpt>
      <trkpt lat="59.9907815" lon="17.7379083">
        <ele>68.3909</ele>
        <time>2012-05-02T18:24:30Z</time>
      </trkpt>
      <trkpt lat="59.9909181" lon="17.7378132">
        <ele>67.4297</ele>
        <time>2012-05-02T18:24:38Z</time>
      </trkpt>
      <trkpt lat="59.9909985" lon="17.7377506">
        <ele>67.4297</ele>
        <time>2012-05-02T18:24:43Z</time>
      </trkpt>
      <trkpt lat="59.9910594" lon="17.7377081">
        <ele>67.4297</ele>
        <time>2012-05-02T18:24:47Z</time>
      </trkpt>
      <trkpt lat="59.9911166" lon="17.737719">
        <ele>67.9103</ele>
        <time>2012-05-02T18:24:51Z</time>
      </trkpt>
      <trkpt lat="59.9912123" lon="17.7376692">
        <ele>69.8329</ele>
        <time>2012-05-02T18:24:57Z</time>
      </trkpt>
      <trkpt lat="59.9913218" lon="17.7376142">
        <ele>68.3909</ele>
        <time>2012-05-02T18:25:04Z</time>
      </trkpt>
      <trkpt lat="59.9913897" lon="17.7375806">
        <ele>67.9103</ele>
        <time>2012-05-02T18:25:09Z</time>
      </trkpt>
      <trkpt lat="59.9914854" lon="17.7375656">
        <ele>65.0264</ele>
        <time>2012-05-02T18:25:15Z</time>
      </trkpt>
      <trkpt lat="59.9915703" lon="17.7375599">
        <ele>65.5071</ele>
        <time>2012-05-02T18:25:20Z</time>
      </trkpt>
      <trkpt lat="59.9916948" lon="17.7375476">
        <ele>71.7555</ele>
        <time>2012-05-02T18:25:26Z</time>
      </trkpt>
      <trkpt lat="59.9918007" lon="17.7375278">
        <ele>79.446</ele>
        <time>2012-05-02T18:25:31Z</time>
      </trkpt>
      <trkpt lat="59.9918475" lon="17.7374936">
        <ele>80.4075</ele>
        <time>2012-05-02T18:25:34Z</time>
      </trkpt>
      <trkpt lat="59.9919172" lon="17.7374827">
        <ele>77.5234</ele>
        <time>2012-05-02T18:25:39Z</time>
      </trkpt>
      <trkpt lat="59.9919853" lon="17.7374872">
        <ele>73.6782</ele>
        <time>2012-05-02T18:25:45Z</time>
      </trkpt>
      <trkpt lat="59.9919947" lon="17.7374843">
        <ele>72.7169</ele>
        <time>2012-05-02T18:25:46Z</time>
      </trkpt>
      <trkpt lat="59.9921158" lon="17.7374599">
        <ele>68.3909</ele>
        <time>2012-05-02T18:25:54Z</time>
      </trkpt>
      <trkpt lat="59.9921742" lon="17.7374605">
        <ele>66.949</ele>
        <time>2012-05-02T18:25:58Z</time>
      </trkpt>
      <trkpt lat="59.9922581" lon="17.7374501">
        <ele>61.181</ele>
        <time>2012-05-02T18:26:05Z</time>
      </trkpt>
      <trkpt lat="59.9923169" lon="17.7374263">
        <ele>59.7391</ele>
        <time>2012-05-02T18:26:09Z</time>
      </trkpt>
      <trkpt lat="59.9923383" lon="17.7373931">
        <ele>57.8165</ele>
        <time>2012-05-02T18:26:11Z</time>
      </trkpt>
      <trkpt lat="59.9924095" lon="17.7373107">
        <ele>57.8165</ele>
        <time>2012-05-02T18:26:17Z</time>
      </trkpt>
      <trkpt lat="59.9924261" lon="17.7372935">
        <ele>58.2971</ele>
        <time>2012-05-02T18:26:18Z</time>
      </trkpt>
      <trkpt lat="59.9925533" lon="17.7371724">
        <ele>64.0651</ele>
        <time>2012-05-02T18:26:26Z</time>
      </trkpt>
      <trkpt lat="59.9926157" lon="17.7370885">
        <ele>64.5457</ele>
        <time>2012-05-02T18:26:30Z</time>
      </trkpt>
      <trkpt lat="59.9927175" lon="17.7369989">
        <ele>67.9103</ele>
        <time>2012-05-02T18:26:36Z</time>
      </trkpt>
    </trkseg>
  </trk>
</gpx>